createdAt,value
2023-04-24T00:01:13.976Z,100981.28
2023-04-24T00:03:42.297Z,100977.06
2023-04-24T00:06:10.538Z,100977.53
2023-04-24T00:08:38.643Z,100982.00
2023-04-24T00:11:06.639Z,100969.84
2023-04-24T00:13:36.081Z,100967.34
2023-04-24T00:16:04.208Z,100973.50
2023-04-24T00:18:32.131Z,100966.50
2023-04-24T00:21:00.443Z,100971.81
2023-04-24T00:23:28.487Z,100972.09
2023-04-24T00:25:56.454Z,100965.69
2023-04-24T00:28:24.457Z,100964.31
2023-04-24T00:30:53.970Z,100969.91
2023-04-24T00:33:22.209Z,100964.59
2023-04-24T00:35:50.136Z,100959.56
2023-04-24T00:38:18.076Z,100961.53
2023-04-24T00:40:46.089Z,100964.59
2023-04-24T00:43:14.182Z,100959.75
2023-04-24T00:45:42.097Z,100950.41
2023-04-24T00:48:11.477Z,100951.97
2023-04-24T00:50:40.032Z,100943.44
2023-04-24T00:53:08.241Z,100960.47
2023-04-24T00:55:38.354Z,100951.00
2023-04-24T00:58:06.769Z,100962.72
2023-04-24T01:00:34.677Z,100961.34
2023-04-24T01:03:03.193Z,100952.91
2023-04-24T01:05:32.724Z,100958.50
2023-04-24T01:08:00.908Z,100963.41
2023-04-24T01:10:29.052Z,100967.31
2023-04-24T01:12:57.016Z,100977.50
2023-04-24T01:15:24.927Z,100973.59
2023-04-24T01:17:52.987Z,100982.53
2023-04-24T01:20:22.887Z,100992.31
2023-04-24T01:22:52.272Z,100991.47
2023-04-24T01:25:20.265Z,100990.34
2023-04-24T01:27:48.344Z,100995.38
2023-04-24T01:30:16.592Z,100993.41
2023-04-24T01:32:45.918Z,100996.50
2023-04-24T01:35:13.876Z,101009.19
2023-04-24T01:37:41.975Z,100997.34
2023-04-24T01:40:11.885Z,100994.41
2023-04-24T01:42:39.992Z,100989.94
2023-04-24T01:45:09.077Z,100995.34
2023-04-24T01:47:37.245Z,100987.41
2023-04-24T01:50:05.825Z,100986.47
2023-04-24T01:52:34.411Z,100993.72
2023-04-24T01:55:02.468Z,100993.97
2023-04-24T01:57:32.500Z,100989.94
2023-04-24T02:00:00.588Z,100988.53
2023-04-24T02:02:31.068Z,100987.16
2023-04-24T02:04:59.501Z,100985.59
2023-04-24T02:07:27.544Z,100990.06
2023-04-24T02:09:56.469Z,100990.91
2023-04-24T02:12:24.758Z,100990.78
2023-04-24T02:14:54.616Z,100984.19
2023-04-24T02:17:22.742Z,100985.59
2023-04-24T02:19:50.968Z,100982.78
2023-04-24T02:22:18.926Z,100982.00
2023-04-24T02:24:47.265Z,100989.22
2023-04-24T02:27:17.194Z,100985.88
2023-04-24T02:29:46.010Z,100978.34
2023-04-24T02:32:16.718Z,100970.53
2023-04-24T02:34:45.095Z,100972.78
2023-04-24T02:37:14.094Z,100983.66
2023-04-24T02:39:42.442Z,100973.88
2023-04-24T02:42:10.863Z,100980.03
2023-04-24T02:44:38.858Z,100986.88
2023-04-24T02:47:06.785Z,100977.91
2023-04-24T02:49:36.143Z,100987.69
2023-04-24T02:52:04.169Z,100985.03
2023-04-24T02:54:32.220Z,100986.16
2023-04-24T02:57:01.737Z,100977.94
2023-04-24T02:59:29.969Z,100976.50
2023-04-24T03:01:59.124Z,100975.84
2023-04-24T03:04:27.282Z,100970.81
2023-04-24T03:06:57.375Z,100974.72
2023-04-24T03:09:25.555Z,100976.91
2023-04-24T03:11:53.489Z,100969.38
2023-04-24T03:14:21.508Z,100978.75
2023-04-24T03:16:49.966Z,100961.00
2023-04-24T03:19:18.028Z,100968.53
2023-04-24T03:22:01.107Z,100967.09
2023-04-24T03:24:29.499Z,100971.16
2023-04-24T03:26:58.230Z,100976.03
2023-04-24T03:29:54.916Z,100975.56
2023-04-24T03:32:24.339Z,100967.78
2023-04-24T03:34:53.670Z,100967.06
2023-04-24T03:37:23.630Z,100975.00
2023-04-24T03:40:02.287Z,100961.34
2023-04-24T03:42:30.763Z,100964.84
2023-04-24T03:44:58.697Z,100962.03
2023-04-24T03:47:32.175Z,100970.69
2023-04-24T03:50:03.662Z,100960.66
2023-04-24T03:52:34.038Z,100963.16
2023-04-24T03:55:02.371Z,100961.22
2023-04-24T03:57:32.452Z,100960.50
2023-04-24T04:00:10.787Z,100954.53
2023-04-24T04:02:42.767Z,100952.13
2023-04-24T04:05:12.320Z,100965.66
2023-04-24T04:07:41.750Z,100968.56
2023-04-24T04:10:10.337Z,100962.31
2023-04-24T04:12:39.085Z,100966.19
2023-04-24T04:15:08.184Z,100967.97
2023-04-24T04:17:36.578Z,100968.94
2023-04-24T04:20:10.966Z,100963.66
2023-04-24T04:22:44.299Z,100951.13
2023-04-24T04:25:20.377Z,100961.44
2023-04-24T04:27:48.789Z,100948.91
2023-04-24T04:30:16.899Z,100948.78
2023-04-24T04:32:57.741Z,100950.00
2023-04-24T04:35:26.955Z,100950.84
2023-04-24T04:37:57.082Z,100952.25
2023-04-24T04:41:03.976Z,100957.56
2023-04-24T04:43:35.213Z,100957.56
2023-04-24T04:46:04.488Z,100959.22
2023-04-24T04:48:58.721Z,100965.66
2023-04-24T04:51:27.334Z,100965.13
2023-04-24T04:53:56.717Z,100962.31
2023-04-24T04:56:25.127Z,100967.38
2023-04-24T04:58:53.120Z,100971.28
2023-04-24T05:01:21.325Z,100976.03
2023-04-24T05:03:51.313Z,100971.00
2023-04-24T05:06:19.434Z,100969.66
2023-04-24T05:08:48.172Z,100973.00
2023-04-24T05:11:28.637Z,100974.41
2023-04-24T05:13:58.433Z,100972.72
2023-04-24T05:16:34.804Z,100974.66
2023-04-24T05:19:03.171Z,100975.50
2023-04-24T05:21:35.984Z,100964.91
2023-04-24T05:24:04.326Z,100967.16
2023-04-24T05:27:03.298Z,100978.91
2023-04-24T05:29:36.732Z,100978.59
2023-04-24T05:32:06.350Z,100974.97
2023-04-24T05:34:34.314Z,100971.75
2023-04-24T05:37:02.237Z,100984.44
2023-04-24T05:39:30.241Z,100972.19
2023-04-24T05:41:59.661Z,100977.47
2023-04-24T05:44:29.164Z,100973.84
2023-04-24T05:46:57.808Z,100969.94
2023-04-24T05:49:26.330Z,100978.59
2023-04-24T05:51:54.658Z,100971.91
2023-04-24T05:54:23.496Z,100975.25
2023-04-24T05:56:51.442Z,100974.72
2023-04-24T05:59:30.935Z,100982.50
2023-04-24T06:02:00.348Z,100982.38
2023-04-24T06:04:28.689Z,100972.47
2023-04-24T06:06:57.430Z,100974.84
2023-04-24T06:09:26.237Z,100972.47
2023-04-24T06:11:54.514Z,100979.47
2023-04-24T06:14:26.501Z,100986.44
2023-04-24T06:17:15.799Z,100985.03
2023-04-24T06:19:44.175Z,100986.97
2023-04-24T06:22:12.436Z,100983.91
2023-04-24T06:24:42.157Z,100988.41
2023-04-24T06:27:10.103Z,100988.38
2023-04-24T06:29:38.466Z,100985.88
2023-04-24T06:32:06.543Z,100988.66
2023-04-24T06:34:36.579Z,100991.50
2023-04-24T06:37:04.592Z,100988.28
2023-04-24T06:39:32.524Z,100970.81
2023-04-24T06:42:01.565Z,100970.22
2023-04-24T06:44:29.733Z,100970.63
2023-04-24T06:46:58.341Z,100986.28
2023-04-24T06:49:26.291Z,100977.34
2023-04-24T06:51:55.830Z,100981.38
2023-04-24T06:54:23.803Z,100979.41
2023-04-24T06:56:53.360Z,100978.84
2023-04-24T06:59:21.762Z,100980.78
2023-04-24T07:01:49.686Z,100980.50
2023-04-24T07:04:17.985Z,100984.28
2023-04-24T07:06:46.895Z,100982.91
2023-04-24T07:09:17.158Z,100982.19
2023-04-24T07:11:45.745Z,100980.78
2023-04-24T07:14:13.760Z,100975.66
2023-04-24T07:16:42.740Z,100975.91
2023-04-24T07:19:12.016Z,100985.94
2023-04-24T07:21:40.318Z,100979.09
2023-04-24T07:24:10.371Z,100966.81
2023-04-24T07:26:39.843Z,100985.22
2023-04-24T07:29:07.777Z,100977.38
2023-04-24T07:31:36.157Z,100967.41
2023-04-24T07:34:04.191Z,100967.75
2023-04-24T07:36:33.403Z,100976.63
2023-04-24T07:39:01.403Z,100965.28
2023-04-24T07:41:29.874Z,100976.34
2023-04-24T07:43:59.446Z,100976.16
2023-04-24T07:46:30.947Z,100977.63
2023-04-24T07:49:13.695Z,100970.69
2023-04-24T07:51:42.617Z,100976.03
2023-04-24T07:54:10.986Z,100972.69
2023-04-24T07:56:40.466Z,100971.69
2023-04-24T07:59:10.817Z,100979.66
2023-04-24T08:01:39.148Z,100980.72
2023-04-24T08:04:07.666Z,100975.00
2023-04-24T08:06:36.252Z,100969.59
2023-04-24T08:09:04.290Z,100970.03
2023-04-24T08:11:33.095Z,100964.56
2023-04-24T08:14:01.078Z,100969.81
2023-04-24T08:16:38.222Z,100978.84
2023-04-24T08:19:06.325Z,100982.88
2023-04-24T08:21:34.275Z,100976.56
2023-04-24T08:24:06.195Z,100980.94
2023-04-24T08:26:34.745Z,100977.63
2023-04-24T08:29:02.847Z,100981.00
2023-04-24T08:31:32.236Z,100988.66
2023-04-24T08:34:01.001Z,100983.16
2023-04-24T08:36:43.615Z,100987.03
2023-04-24T08:39:16.634Z,100989.06
2023-04-24T08:41:46.570Z,100986.44
2023-04-24T08:44:16.697Z,100985.59
2023-04-24T08:46:48.932Z,100977.91
2023-04-24T08:49:17.640Z,100980.75
2023-04-24T08:51:45.905Z,100987.09
2023-04-24T08:54:14.986Z,100978.78
2023-04-24T08:56:42.906Z,100984.44
2023-04-24T08:59:11.340Z,100992.97
2023-04-24T09:01:40.753Z,100973.09
2023-04-24T09:04:12.165Z,100963.78
2023-04-24T09:06:40.603Z,100977.78
2023-04-24T09:09:08.512Z,100971.81
2023-04-24T09:11:36.453Z,100971.66
2023-04-24T09:14:04.420Z,100970.56
2023-04-24T09:16:36.526Z,100973.41
2023-04-24T09:19:05.098Z,100970.22
2023-04-24T09:21:35.154Z,100963.53
2023-04-24T09:24:03.920Z,100974.72
2023-04-24T09:26:33.927Z,100969.88
2023-04-24T09:29:02.156Z,100969.91
2023-04-24T09:31:30.765Z,100979.22
2023-04-24T09:34:01.787Z,100980.22
2023-04-24T09:36:31.599Z,100973.88
2023-04-24T09:39:01.624Z,100978.88
2023-04-24T09:41:30.070Z,100966.84
2023-04-24T09:43:58.222Z,100974.69
2023-04-24T09:46:31.950Z,100978.19
2023-04-24T09:49:00.016Z,100986.72
2023-04-24T09:51:36.489Z,100982.22
2023-04-24T09:54:07.120Z,100974.34
2023-04-24T09:56:35.823Z,100985.72
2023-04-24T09:59:09.104Z,100983.91
2023-04-24T10:01:39.210Z,100982.88
2023-04-24T10:04:14.564Z,100983.53
2023-04-24T10:06:44.401Z,100997.09
2023-04-24T10:09:14.851Z,100989.06
2023-04-24T10:11:45.128Z,101004.59
2023-04-24T10:14:14.860Z,101004.25
2023-04-24T10:16:43.032Z,101004.25
2023-04-24T10:19:11.893Z,101001.59
2023-04-24T10:21:43.386Z,101007.94
2023-04-24T10:24:11.681Z,101009.91
2023-04-24T10:26:41.576Z,101016.22
2023-04-24T10:29:11.004Z,101018.03
2023-04-24T10:31:39.148Z,101017.22
2023-04-24T10:34:07.478Z,101024.78
2023-04-24T10:36:35.643Z,101030.69
2023-04-24T10:39:07.923Z,101037.72
2023-04-24T10:41:36.738Z,101034.19
2023-04-24T10:44:11.423Z,101033.59
2023-04-24T10:46:42.393Z,101034.91
2023-04-24T10:49:10.775Z,101025.19
2023-04-24T10:51:54.334Z,101035.56
2023-04-24T10:54:29.130Z,101038.25
2023-04-24T10:57:33.816Z,101060.34
2023-04-24T11:00:21.878Z,101065.44
2023-04-24T11:02:54.028Z,101067.41
2023-04-24T11:05:22.746Z,101075.19
2023-04-24T11:08:15.103Z,101084.66
2023-04-24T11:10:45.645Z,101082.44
2023-04-24T11:13:17.018Z,101082.44
2023-04-24T11:15:46.500Z,101087.31
2023-04-24T11:18:17.732Z,101087.19
2023-04-24T11:20:47.064Z,101083.28
2023-04-24T11:23:15.172Z,101084.84
2023-04-24T11:25:45.145Z,101086.09
2023-04-24T11:28:18.527Z,101084.41
2023-04-24T11:30:48.264Z,101072.13
2023-04-24T11:33:16.423Z,101076.72
2023-04-24T11:35:44.449Z,101082.72
2023-04-24T11:38:24.035Z,101079.09
2023-04-24T11:40:54.065Z,101088.91
2023-04-24T11:43:22.167Z,101092.84
2023-04-24T11:45:51.953Z,101092.56
2023-04-24T11:48:23.693Z,101084.34
2023-04-24T11:50:52.659Z,101090.06
2023-04-24T11:53:21.654Z,101083.09
2023-04-24T11:55:51.088Z,101088.97
2023-04-24T11:58:19.231Z,101088.13
2023-04-24T12:00:47.711Z,101087.84
2023-04-24T12:03:17.399Z,101083.66
2023-04-24T12:05:46.908Z,101083.78
2023-04-24T12:08:17.038Z,101074.56
2023-04-24T12:10:46.951Z,101069.94
2023-04-24T12:13:15.353Z,101070.50
2023-04-24T12:15:43.621Z,101065.22
2023-04-24T12:18:14.247Z,101064.34
2023-04-24T12:20:43.770Z,101080.25
2023-04-24T12:23:11.740Z,101073.50
2023-04-24T12:25:41.927Z,101072.34
2023-04-24T12:28:14.088Z,101074.84
2023-04-24T12:30:45.651Z,101075.00
2023-04-24T12:33:14.627Z,101071.78
2023-04-24T12:35:44.248Z,101068.38
2023-04-24T12:38:13.876Z,101074.53
2023-04-24T12:40:42.389Z,101075.38
2023-04-24T12:43:16.152Z,101072.00
2023-04-24T12:45:46.427Z,101074.91
2023-04-24T12:48:15.198Z,101074.75
2023-04-24T12:50:46.440Z,101075.66
2023-04-24T12:53:16.404Z,101069.34
2023-04-24T12:55:45.520Z,101071.72
2023-04-24T12:58:18.966Z,101080.34
2023-04-24T13:00:47.772Z,101078.00
2023-04-24T13:03:16.815Z,101082.25
2023-04-24T13:05:46.475Z,101080.06
2023-04-24T13:08:15.113Z,101089.03
2023-04-24T13:10:44.726Z,101086.00
2023-04-24T13:13:15.437Z,101091.16
2023-04-24T13:15:44.020Z,101091.03
2023-04-24T13:18:12.837Z,101097.19
2023-04-24T13:20:42.107Z,101086.72
2023-04-24T13:23:11.463Z,101097.78
2023-04-24T13:25:40.293Z,101101.25
2023-04-24T13:28:08.321Z,101105.91
2023-04-24T13:30:37.679Z,101102.53
2023-04-24T13:33:06.223Z,101093.03
2023-04-24T13:35:34.428Z,101114.03
2023-04-24T13:38:07.386Z,101108.44
2023-04-24T13:40:39.430Z,101104.81
2023-04-24T13:43:08.672Z,101101.13
2023-04-24T13:45:36.915Z,101103.91
2023-04-24T13:48:05.242Z,101104.34
2023-04-24T13:50:33.736Z,101110.50
2023-04-24T13:53:03.013Z,101109.22
2023-04-24T13:55:32.004Z,101119.59
2023-04-24T13:58:02.368Z,101111.34
2023-04-24T14:00:30.507Z,101116.06
2023-04-24T14:02:58.603Z,101114.78
2023-04-24T14:05:26.719Z,101114.53
2023-04-24T14:07:54.930Z,101110.59
2023-04-24T14:10:23.180Z,101116.22
2023-04-24T14:12:51.092Z,101114.09
2023-04-24T14:15:20.623Z,101127.41
2023-04-24T14:17:49.661Z,101111.88
2023-04-24T14:20:18.032Z,101111.81
2023-04-24T14:22:46.705Z,101113.69
2023-04-24T14:25:16.369Z,101109.84
2023-04-24T14:27:44.521Z,101112.31
2023-04-24T14:30:13.729Z,101117.44
2023-04-24T14:32:44.375Z,101118.69
2023-04-24T14:35:13.109Z,101109.25
2023-04-24T14:37:42.283Z,101112.84
2023-04-24T14:40:26.681Z,101118.91
2023-04-24T14:42:59.326Z,101118.00
2023-04-24T14:45:27.593Z,101119.91
2023-04-24T14:47:57.654Z,101119.19
2023-04-24T14:50:28.957Z,101110.75
2023-04-24T14:52:59.474Z,101118.38
2023-04-24T14:55:27.959Z,101114.28
2023-04-24T14:57:55.936Z,101124.22
2023-04-24T15:00:25.062Z,101125.22
2023-04-24T15:02:56.491Z,101125.53
2023-04-24T15:05:25.834Z,101134.88
2023-04-24T15:07:54.663Z,101118.69
2023-04-24T15:10:24.015Z,101125.44
2023-04-24T15:12:52.100Z,101121.28
2023-04-24T15:15:20.252Z,101124.09
2023-04-24T15:17:50.816Z,101117.22
2023-04-24T15:20:20.305Z,101131.22
2023-04-24T15:22:49.416Z,101131.94
2023-04-24T15:25:17.948Z,101153.44
2023-04-24T15:27:47.344Z,101146.69
2023-04-24T15:30:15.644Z,101151.13
2023-04-24T15:32:43.756Z,101150.38
2023-04-24T15:35:14.143Z,101153.25
2023-04-24T15:37:43.965Z,101151.19
2023-04-24T15:40:14.397Z,101145.28
2023-04-24T15:42:42.928Z,101151.53
2023-04-24T15:45:15.811Z,101145.34
2023-04-24T15:47:44.285Z,101144.53
2023-04-24T15:50:14.337Z,101142.53
2023-04-24T15:52:44.696Z,101146.44
2023-04-24T15:55:12.819Z,101160.06
2023-04-24T15:57:40.964Z,101155.13
2023-04-24T16:00:11.472Z,101158.19
2023-04-24T16:02:39.636Z,101156.75
2023-04-24T16:05:09.110Z,101177.63
2023-04-24T16:07:38.574Z,101177.91
2023-04-24T16:10:08.977Z,101178.28
2023-04-24T16:12:37.173Z,101184.97
2023-04-24T16:15:07.596Z,101183.31
2023-04-24T16:17:38.159Z,101181.91
2023-04-24T16:20:08.775Z,101178.81
2023-04-24T16:22:36.904Z,101176.94
2023-04-24T16:25:08.409Z,101185.13
2023-04-24T16:27:37.511Z,101184.63
2023-04-24T16:30:07.909Z,101188.13
2023-04-24T16:32:36.234Z,101186.78
2023-04-24T16:35:04.187Z,101195.88
2023-04-24T16:37:32.318Z,101200.56
2023-04-24T16:40:00.266Z,101196.22
2023-04-24T16:42:29.687Z,101206.09
2023-04-24T16:44:57.717Z,101206.38
2023-04-24T16:47:25.819Z,101222.75
2023-04-24T16:49:54.135Z,101229.38
2023-04-24T16:52:22.147Z,101226.38
2023-04-24T16:54:50.153Z,101239.13
2023-04-24T16:57:18.052Z,101238.44
2023-04-24T16:59:47.993Z,101235.09
2023-04-24T17:02:16.016Z,101239.13
2023-04-24T17:04:44.026Z,101246.53
2023-04-24T17:07:12.337Z,101249.41
2023-04-24T17:09:40.324Z,101252.44
2023-04-24T17:12:08.418Z,101250.16
2023-04-24T17:14:36.434Z,101253.81
2023-04-24T17:17:05.892Z,101260.50
2023-04-24T17:19:35.709Z,101260.75
2023-04-24T17:22:06.095Z,101257.13
2023-04-24T17:24:34.528Z,101264.59
2023-04-24T17:27:12.111Z,101278.22
2023-04-24T17:29:43.134Z,101288.56
2023-04-24T17:32:19.377Z,101288.91
2023-04-24T17:34:49.146Z,101297.81
2023-04-24T17:37:19.857Z,101305.31
2023-04-24T17:39:48.570Z,101301.47
2023-04-24T17:42:16.522Z,101311.34
2023-04-24T17:44:45.444Z,101317.69
2023-04-24T17:47:14.834Z,101324.56
2023-04-24T17:49:43.618Z,101332.88
2023-04-24T17:52:12.818Z,101334.38
2023-04-24T17:54:40.977Z,101340.22
2023-04-24T17:57:08.956Z,101335.00
2023-04-24T17:59:37.029Z,101349.06
2023-04-24T18:02:04.941Z,101351.63
2023-04-24T18:04:34.574Z,101349.34
2023-04-24T18:07:02.968Z,101353.91
2023-04-24T18:09:30.941Z,101353.69
2023-04-24T18:11:59.107Z,101355.31
2023-04-24T18:14:28.403Z,101359.94
2023-04-24T18:16:59.514Z,101370.81
2023-04-24T18:19:27.619Z,101376.72
2023-04-24T18:21:57.401Z,101378.47
2023-04-24T18:24:25.741Z,101369.47
2023-04-24T18:26:54.193Z,101372.31
2023-04-24T18:29:22.267Z,101370.91
2023-04-24T18:31:53.722Z,101374.56
2023-04-24T18:34:21.786Z,101374.41
2023-04-24T18:36:49.985Z,101379.41
2023-04-24T18:39:23.008Z,101387.28
2023-04-24T18:41:52.187Z,101393.91
2023-04-24T18:44:20.151Z,101404.03
2023-04-24T18:46:48.295Z,101405.13
2023-04-24T18:49:16.215Z,101413.97
2023-04-24T18:51:53.687Z,101418.31
2023-04-24T18:54:23.946Z,101421.53
2023-04-24T18:56:52.556Z,101419.84
2023-04-24T18:59:20.830Z,101433.00
2023-04-24T19:01:48.997Z,101435.50
2023-04-24T19:04:18.170Z,101443.91
2023-04-24T19:06:46.182Z,101444.88
2023-04-24T19:09:14.206Z,101441.13
2023-04-24T19:11:44.866Z,101448.38
2023-04-24T19:14:13.664Z,101442.34
2023-04-24T19:16:41.775Z,101433.97
2023-04-24T19:19:09.990Z,101436.91
2023-04-24T19:21:38.025Z,101438.41
2023-04-24T19:24:06.312Z,101439.94
2023-04-24T19:26:34.400Z,101441.31
2023-04-24T19:29:04.748Z,101451.66
2023-04-24T19:31:32.990Z,101461.13
2023-04-24T19:34:03.264Z,101472.31
2023-04-24T19:36:31.339Z,101481.25
2023-04-24T19:38:59.384Z,101491.16
2023-04-24T19:41:30.744Z,101492.69
2023-04-24T19:43:58.734Z,101498.84
2023-04-24T19:46:28.446Z,101510.03
2023-04-24T19:48:56.651Z,101502.78
2023-04-24T19:51:24.651Z,101518.44
2023-04-24T19:53:55.227Z,101519.28
2023-04-24T19:56:23.242Z,101528.97
2023-04-24T19:58:51.329Z,101537.78
2023-04-24T20:01:19.751Z,101548.41
2023-04-24T20:03:49.476Z,101552.75
2023-04-24T20:06:17.749Z,101554.25
2023-04-24T20:08:45.839Z,101557.44
2023-04-24T20:11:15.088Z,101562.56
2023-04-24T20:13:43.178Z,101566.72
2023-04-24T20:16:11.544Z,101571.56
2023-04-24T20:18:39.847Z,101570.34
2023-04-24T20:21:09.508Z,101578.75
2023-04-24T20:23:37.493Z,101573.19
2023-04-24T20:26:05.421Z,101565.66
2023-04-24T20:28:33.497Z,101564.56
2023-04-24T20:31:01.475Z,101566.81
2023-04-24T20:33:30.704Z,101559.44
2023-04-24T20:35:58.724Z,101569.91
2023-04-24T20:38:28.816Z,101560.53
2023-04-24T20:40:58.205Z,101563.19
2023-04-24T20:43:28.894Z,101565.13
2023-04-24T20:45:57.910Z,101564.81
2023-04-24T20:48:28.133Z,101576.53
2023-04-24T20:50:56.319Z,101577.66
2023-04-24T20:53:24.317Z,101569.56
2023-04-24T20:55:53.889Z,101576.53
2023-04-24T20:58:22.279Z,101568.19
2023-04-24T21:00:50.456Z,101569.47
2023-04-24T21:03:18.866Z,101569.03
2023-04-24T21:05:47.053Z,101572.91
2023-04-24T21:08:15.166Z,101581.41
2023-04-24T21:10:43.210Z,101588.66
2023-04-24T21:13:15.182Z,101602.22
2023-04-24T21:15:43.114Z,101613.34
2023-04-24T21:18:12.645Z,101620.84
2023-04-24T21:20:40.664Z,101625.19
2023-04-24T21:23:09.045Z,101613.59
2023-04-24T21:25:37.269Z,101627.06
2023-04-24T21:28:05.724Z,101625.16
2023-04-24T21:30:35.274Z,101621.78
2023-04-24T21:33:03.529Z,101625.66
2023-04-24T21:35:31.991Z,101626.16
2023-04-24T21:37:59.986Z,101628.59
2023-04-24T21:40:29.435Z,101622.97
2023-04-24T21:42:57.459Z,101622.38
2023-04-24T21:45:25.408Z,101619.00
2023-04-24T21:47:54.970Z,101611.78
2023-04-24T21:50:23.012Z,101611.25
2023-04-24T21:52:51.011Z,101612.31
2023-04-24T21:55:19.189Z,101599.09
2023-04-24T21:57:47.153Z,101598.59
2023-04-24T22:00:15.454Z,101589.38
2023-04-24T22:02:43.865Z,101596.13
2023-04-24T22:05:15.853Z,101588.84
2023-04-24T22:07:46.695Z,101584.38
2023-04-24T22:10:16.592Z,101588.94
2023-04-24T22:12:44.838Z,101586.31
2023-04-24T22:15:12.982Z,101585.16
2023-04-24T22:17:40.940Z,101588.09
2023-04-24T22:20:09.568Z,101598.22
2023-04-24T22:22:39.705Z,101602.25
2023-04-24T22:25:09.204Z,101597.22
2023-04-24T22:27:37.339Z,101600.22
2023-04-24T22:30:06.168Z,101615.06
2023-04-24T22:32:34.495Z,101605.28
2023-04-24T22:35:02.479Z,101609.16
2023-04-24T22:37:30.780Z,101616.16
2023-04-24T22:40:01.410Z,101615.91
2023-04-24T22:42:30.133Z,101615.91
2023-04-24T22:44:58.097Z,101619.53
2023-04-24T22:47:26.163Z,101637.25
2023-04-24T22:49:54.247Z,101637.38
2023-04-24T22:52:22.518Z,101637.38
2023-04-24T22:54:50.748Z,101631.56
2023-04-24T22:57:20.164Z,101628.53
2023-04-24T22:59:48.314Z,101637.81
2023-04-24T23:02:16.889Z,101628.16
2023-04-24T23:04:45.031Z,101628.16
2023-04-24T23:07:13.000Z,101625.03
2023-04-24T23:09:40.957Z,101634.22
2023-04-24T23:12:08.890Z,101636.53
2023-04-24T23:14:38.293Z,101639.81
2023-04-24T23:17:06.360Z,101651.78
2023-04-24T23:19:34.466Z,101647.81
2023-04-24T23:22:02.543Z,101649.84
2023-04-24T23:24:30.828Z,101662.53
2023-04-24T23:26:58.905Z,101661.78
2023-04-24T23:29:26.930Z,101671.84
2023-04-24T23:31:56.953Z,101671.09
2023-04-24T23:34:25.238Z,101668.84
2023-04-24T23:36:53.351Z,101674.72
2023-04-24T23:39:22.932Z,101679.91
2023-04-24T23:41:53.577Z,101673.88
2023-04-24T23:44:21.612Z,101666.88
2023-04-24T23:46:49.919Z,101670.63
2023-04-24T23:49:19.427Z,101673.41
2023-04-24T23:51:47.922Z,101672.94
2023-04-24T23:54:15.862Z,101675.72
2023-04-24T23:56:44.629Z,101684.75
2023-04-24T23:59:12.535Z,101686.94
